sensor_id;sensor_type;location;lat;lon;timestamp;temperature;humidity
19968;DHT22;10145;49.152;9.282;2022-11-15T05:00:43;8.80;99.90
19968;DHT22;10145;49.152;9.282;2022-11-15T05:03:09;8.80;99.90
19968;DHT22;10145;49.152;9.282;2022-11-15T05:05:53;8.80;99.90
19968;DHT22;10145;49.152;9.282;2022-11-15T05:08:19;8.90;99.90
19968;DHT22;10145;49.152;9.282;2022-11-15T05:10:45;8.80;99.90
19968;DHT22;10145;49.152;9.282;2022-11-15T05:13:10;8.80;99.90
19968;DHT22;10145;49.152;9.282;2022-11-15T05:15:36;8.80;99.90
19968;DHT22;10145;49.152;9.282;2022-11-15T05:18:01;8.80;99.90
19968;DHT22;10145;49.152;9.282;2022-11-15T05:20:27;8.80;99.90
19968;DHT22;10145;49.152;9.282;2022-11-15T05:22:53;8.80;99.90
19968;DHT22;10145;49.152;9.282;2022-11-15T05:25:21;8.80;99.90
19968;DHT22;10145;49.152;9.282;2022-11-15T05:27:47;8.80;99.90
19968;DHT22;10145;49.152;9.282;2022-11-15T05:30:12;8.70;99.90
19968;DHT22;10145;49.152;9.282;2022-11-15T05:32:38;8.60;99.90
19968;DHT22;10145;49.152;9.282;2022-11-15T05:35:05;8.50;99.90
19968;DHT22;10145;49.152;9.282;2022-11-15T05:37:32;8.40;99.90
19968;DHT22;10145;49.152;9.282;2022-11-15T05:39:58;8.20;99.90
19968;DHT22;10145;49.152;9.282;2022-11-15T05:42:25;8.10;99.90
19968;DHT22;10145;49.152;9.282;2022-11-15T05:44:52;7.90;99.90
19968;DHT22;10145;49.152;9.282;2022-11-15T05:47:21;7.80;99.90
19968;DHT22;10145;49.152;9.282;2022-11-15T05:49:50;7.60;99.90
19968;DHT22;10145;49.152;9.282;2022-11-15T05:52:21;7.40;99.90
19968;DHT22;10145;49.152;9.282;2022-11-15T05:54:47;7.30;99.90
19968;DHT22;10145;49.152;9.282;2022-11-15T05:57:13;7.20;99.90
19968;DHT22;10145;49.152;9.282;2022-11-15T05:59:38;7.20;99.90
19968;DHT22;10145;49.152;9.282;2022-11-15T06:02:05;7.00;99.90
19968;DHT22;10145;49.152;9.282;2022-11-15T06:04:31;6.80;99.90
19968;DHT22;10145;49.152;9.282;2022-11-15T06:06:58;6.70;99.90
19968;DHT22;10145;49.152;9.282;2022-11-15T06:09:24;6.60;99.90
19968;DHT22;10145;49.152;9.282;2022-11-15T06:11:49;6.60;99.90
19968;DHT22;10145;49.152;9.282;2022-11-15T06:14:15;6.60;99.90
19968;DHT22;10145;49.152;9.282;2022-11-15T06:16:40;6.60;99.90
19968;DHT22;10145;49.152;9.282;2022-11-15T06:19:06;6.60;99.90
19968;DHT22;10145;49.152;9.282;2022-11-15T06:21:32;6.60;99.90
19968;DHT22;10145;49.152;9.282;2022-11-15T06:23:58;6.60;99.90
19968;DHT22;10145;49.152;9.282;2022-11-15T06:26:23;6.50;99.90
19968;DHT22;10145;49.152;9.282;2022-11-15T06:28:49;6.50;99.90
19968;DHT22;10145;49.152;9.282;2022-11-15T06:31:15;6.40;99.90
19968;DHT22;10145;49.152;9.282;2022-11-15T06:33:41;6.50;99.90
19968;DHT22;10145;49.152;9.282;2022-11-15T06:36:10;6.50;99.90
19968;DHT22;10145;49.152;9.282;2022-11-15T06:38:39;6.50;99.90
19968;DHT22;10145;49.152;9.282;2022-11-15T06:41:06;6.50;99.90
19968;DHT22;10145;49.152;9.282;2022-11-15T06:43:33;6.50;99.90
19968;DHT22;10145;49.152;9.282;2022-11-15T06:45:59;6.40;99.90
19968;DHT22;10145;49.152;9.282;2022-11-15T06:48:26;6.50;99.90
19968;DHT22;10145;49.152;9.282;2022-11-15T06:50:56;6.40;99.90
19968;DHT22;10145;49.152;9.282;2022-11-15T06:53:22;6.40;99.90
19968;DHT22;10145;49.152;9.282;2022-11-15T06:55:47;6.30;99.90
19968;DHT22;10145;49.152;9.282;2022-11-15T06:58:13;6.40;99.90
19968;DHT22;10145;49.152;9.282;2022-11-15T07:00:39;6.40;99.90
19968;DHT22;10145;49.152;9.282;2022-11-15T07:03:06;6.50;99.90
19968;DHT22;10145;49.152;9.282;2022-11-15T07:05:33;6.50;99.90
19968;DHT22;10145;49.152;9.282;2022-11-15T07:07:59;6.60;99.90
19968;DHT22;10145;49.152;9.282;2022-11-15T07:10:26;6.60;99.90
19968;DHT22;10145;49.152;9.282;2022-11-15T07:12:53;6.60;99.90
19968;DHT22;10145;49.152;9.282;2022-11-15T07:15:22;6.60;99.90
19968;DHT22;10145;49.152;9.282;2022-11-15T07:17:48;6.70;99.90
19968;DHT22;10145;49.152;9.282;2022-11-15T07:20:14;6.70;99.90
19968;DHT22;10145;49.152;9.282;2022-11-15T07:22:41;6.70;99.90
19968;DHT22;10145;49.152;9.282;2022-11-15T07:25:07;6.70;99.90
19968;DHT22;10145;49.152;9.282;2022-11-15T07:27:33;6.70;99.90
19968;DHT22;10145;49.152;9.282;2022-11-15T07:29:59;6.80;99.90
19968;DHT22;10145;49.152;9.282;2022-11-15T07:32:25;6.90;99.90
19968;DHT22;10145;49.152;9.282;2022-11-15T07:34:50;7.00;99.90
19968;DHT22;10145;49.152;9.282;2022-11-15T07:37:16;7.10;99.90
19968;DHT22;10145;49.152;9.282;2022-11-15T07:39:42;7.20;99.90
19968;DHT22;10145;49.152;9.282;2022-11-15T07:42:08;7.20;99.90
19968;DHT22;10145;49.152;9.282;2022-11-15T07:44:52;7.30;99.90
19968;DHT22;10145;49.152;9.282;2022-11-15T07:47:17;7.40;99.90
19968;DHT22;10145;49.152;9.282;2022-11-15T07:49:43;7.50;99.90
19968;DHT22;10145;49.152;9.282;2022-11-15T07:52:08;7.50;99.90
19968;DHT22;10145;49.152;9.282;2022-11-15T07:54:34;7.70;99.90
19968;DHT22;10145;49.152;9.282;2022-11-15T07:56:59;7.70;99.90
19968;DHT22;10145;49.152;9.282;2022-11-15T07:59:25;7.90;99.90
19968;DHT22;10145;49.152;9.282;2022-11-15T08:01:51;8.00;99.90
19968;DHT22;10145;49.152;9.282;2022-11-15T08:04:16;8.10;99.90
19968;DHT22;10145;49.152;9.282;2022-11-15T08:06:42;8.20;99.90
19968;DHT22;10145;49.152;9.282;2022-11-15T08:09:07;8.10;99.90
19968;DHT22;10145;49.152;9.282;2022-11-15T08:11:33;8.30;99.90
19968;DHT22;10145;49.152;9.282;2022-11-15T08:13:59;8.40;99.90
19968;DHT22;10145;49.152;9.282;2022-11-15T08:16:24;8.50;99.90
19968;DHT22;10145;49.152;9.282;2022-11-15T08:18:50;8.70;99.90
19968;DHT22;10145;49.152;9.282;2022-11-15T08:21:19;8.80;99.90
19968;DHT22;10145;49.152;9.282;2022-11-15T08:23:45;8.90;99.90
19968;DHT22;10145;49.152;9.282;2022-11-15T08:26:10;9.10;99.90
19968;DHT22;10145;49.152;9.282;2022-11-15T08:28:36;9.20;99.90
19968;DHT22;10145;49.152;9.282;2022-11-15T08:31:02;9.40;99.90
19968;DHT22;10145;49.152;9.282;2022-11-15T08:33:28;9.30;99.90
19968;DHT22;10145;49.152;9.282;2022-11-15T08:35:58;9.30;99.90
19968;DHT22;10145;49.152;9.282;2022-11-15T08:38:24;9.30;99.90
19968;DHT22;10145;49.152;9.282;2022-11-15T08:41:00;9.30;99.90
19968;DHT22;10145;49.152;9.282;2022-11-15T08:43:27;9.40;99.90
19968;DHT22;10145;49.152;9.282;2022-11-15T08:45:57;9.50;99.90
19968;DHT22;10145;49.152;9.282;2022-11-15T08:48:22;9.60;99.90
19968;DHT22;10145;49.152;9.282;2022-11-15T08:50:48;9.80;99.90
19968;DHT22;10145;49.152;9.282;2022-11-15T08:53:14;9.90;99.90
19968;DHT22;10145;49.152;9.282;2022-11-15T08:55:40;10.10;99.90
19968;DHT22;10145;49.152;9.282;2022-11-15T08:58:06;10.30;99.90
19968;DHT22;10145;49.152;9.282;2022-11-15T09:00:33;10.50;99.90
19968;DHT22;10145;49.152;9.282;2022-11-15T09:02:58;10.60;99.90
19968;DHT22;10145;49.152;9.282;2022-11-15T09:05:25;10.70;99.90
19968;DHT22;10145;49.152;9.282;2022-11-15T09:07:54;10.80;99.90
19968;DHT22;10145;49.152;9.282;2022-11-15T09:10:20;11.00;99.90
19968;DHT22;10145;49.152;9.282;2022-11-15T09:12:46;11.10;99.90
19968;DHT22;10145;49.152;9.282;2022-11-15T09:15:14;11.30;99.90
19968;DHT22;10145;49.152;9.282;2022-11-15T09:17:40;11.50;99.90
19968;DHT22;10145;49.152;9.282;2022-11-15T09:20:06;11.80;99.90
19968;DHT22;10145;49.152;9.282;2022-11-15T09:22:32;12.00;99.90
19968;DHT22;10145;49.152;9.282;2022-11-15T09:24:58;11.90;99.90
19968;DHT22;10145;49.152;9.282;2022-11-15T09:27:28;12.20;99.90
19968;DHT22;10145;49.152;9.282;2022-11-15T09:29:54;12.40;99.90
19968;DHT22;10145;49.152;9.282;2022-11-15T09:32:19;12.40;99.90
19968;DHT22;10145;49.152;9.282;2022-11-15T09:34:45;12.50;99.90
19968;DHT22;10145;49.152;9.282;2022-11-15T09:37:11;12.50;99.90
19968;DHT22;10145;49.152;9.282;2022-11-15T09:39:37;12.70;99.90
19968;DHT22;10145;49.152;9.282;2022-11-15T09:44:53;13.10;99.90
19968;DHT22;10145;49.152;9.282;2022-11-15T09:50:14;13.10;99.90
19968;DHT22;10145;49.152;9.282;2022-11-15T09:52:43;13.20;99.90
19968;DHT22;10145;49.152;9.282;2022-11-15T09:55:11;13.20;99.90
19968;DHT22;10145;49.152;9.282;2022-11-15T10:00:51;13.10;99.90
19968;DHT22;10145;49.152;9.282;2022-11-15T10:03:20;13.20;99.90
19968;DHT22;10145;49.152;9.282;2022-11-15T10:05:51;13.20;99.90
19968;DHT22;10145;49.152;9.282;2022-11-15T10:08:33;13.20;99.90
19968;DHT22;10145;49.152;9.282;2022-11-15T10:11:27;13.40;99.90
19968;DHT22;10145;49.152;9.282;2022-11-15T10:13:56;13.30;99.90
19968;DHT22;10145;49.152;9.282;2022-11-15T10:16:54;13.50;99.90
19968;DHT22;10145;49.152;9.282;2022-11-15T10:24:47;13.80;99.90
19968;DHT22;10145;49.152;9.282;2022-11-15T10:27:16;13.90;99.90
19968;DHT22;10145;49.152;9.282;2022-11-15T10:29:49;13.90;99.90
19968;DHT22;10145;49.152;9.282;2022-11-15T10:32:17;14.00;99.90
19968;DHT22;10145;49.152;9.282;2022-11-15T10:34:43;13.80;99.90
19968;DHT22;10145;49.152;9.282;2022-11-15T10:37:09;13.80;99.90
19968;DHT22;10145;49.152;9.282;2022-11-15T10:39:35;13.80;99.90
19968;DHT22;10145;49.152;9.282;2022-11-15T10:42:27;13.80;99.90
19968;DHT22;10145;49.152;9.282;2022-11-15T10:44:53;13.80;99.90
19968;DHT22;10145;49.152;9.282;2022-11-15T10:47:32;13.80;99.90
19968;DHT22;10145;49.152;9.282;2022-11-15T10:52:24;13.80;99.90
19968;DHT22;10145;49.152;9.282;2022-11-15T10:57:38;13.90;99.90
19968;DHT22;10145;49.152;9.282;2022-11-15T11:00:36;14.00;99.90
19968;DHT22;10145;49.152;9.282;2022-11-15T11:03:05;14.00;99.90
19968;DHT22;10145;49.152;9.282;2022-11-15T11:05:38;13.90;99.90
19968;DHT22;10145;49.152;9.282;2022-11-15T11:10:33;13.80;99.90
19968;DHT22;10145;49.152;9.282;2022-11-15T11:18:26;13.90;99.90
19968;DHT22;10145;49.152;9.282;2022-11-15T11:21:03;13.80;99.90
19968;DHT22;10145;49.152;9.282;2022-11-15T11:32:23;13.80;99.90
19968;DHT22;10145;49.152;9.282;2022-11-15T11:40:40;13.80;99.90
19968;DHT22;10145;49.152;9.282;2022-11-15T11:44:15;13.70;99.90
19968;DHT22;10145;49.152;9.282;2022-11-15T11:52:15;13.80;99.90
19968;DHT22;10145;49.152;9.282;2022-11-15T11:54:47;14.10;99.90
19968;DHT22;10145;49.152;9.282;2022-11-15T11:57:34;14.30;99.90
19968;DHT22;10145;49.152;9.282;2022-11-15T12:02:43;14.90;99.90
19968;DHT22;10145;49.152;9.282;2022-11-15T12:10:48;15.10;99.90
19968;DHT22;10145;49.152;9.282;2022-11-15T12:13:21;15.20;99.90
19968;DHT22;10145;49.152;9.282;2022-11-15T12:16:14;15.30;99.90
19968;DHT22;10145;49.152;9.282;2022-11-15T12:18:44;15.50;99.90
19968;DHT22;10145;49.152;9.282;2022-11-15T12:24:34;15.60;99.90
19968;DHT22;10145;49.152;9.282;2022-11-15T12:27:11;15.60;99.90
19968;DHT22;10145;49.152;9.282;2022-11-15T12:29:46;15.50;99.90
19968;DHT22;10145;49.152;9.282;2022-11-15T12:32:28;15.40;99.90
19968;DHT22;10145;49.152;9.282;2022-11-15T12:34:55;15.30;99.90
19968;DHT22;10145;49.152;9.282;2022-11-15T12:45:41;15.70;99.90
19968;DHT22;10145;49.152;9.282;2022-11-15T12:58:58;15.80;99.90
19968;DHT22;10145;49.152;9.282;2022-11-15T13:06:50;15.80;99.90
19968;DHT22;10145;49.152;9.282;2022-11-15T13:11:55;15.40;99.90
19968;DHT22;10145;49.152;9.282;2022-11-15T13:20:33;15.20;99.90
19968;DHT22;10145;49.152;9.282;2022-11-15T13:22:40;15.00;99.90
19968;DHT22;10145;49.152;9.282;2022-11-15T13:28:21;15.00;99.90
19968;DHT22;10145;49.152;9.282;2022-11-15T13:33:30;15.00;99.90
19968;DHT22;10145;49.152;9.282;2022-11-15T13:36:00;15.10;99.90
19968;DHT22;10145;49.152;9.282;2022-11-15T13:38:28;15.10;99.90
19968;DHT22;10145;49.152;9.282;2022-11-15T13:40:55;15.10;99.90
19968;DHT22;10145;49.152;9.282;2022-11-15T13:46:11;15.20;99.90
19968;DHT22;10145;49.152;9.282;2022-11-15T13:48:37;15.20;99.90
19968;DHT22;10145;49.152;9.282;2022-11-15T13:51:12;15.20;99.90
19968;DHT22;10145;49.152;9.282;2022-11-15T13:53:44;15.10;99.90
19968;DHT22;10145;49.152;9.282;2022-11-15T13:56:12;15.10;99.90
19968;DHT22;10145;49.152;9.282;2022-11-15T13:58:38;15.10;99.90
19968;DHT22;10145;49.152;9.282;2022-11-15T14:01:05;15.10;99.90
19968;DHT22;10145;49.152;9.282;2022-11-15T14:03:34;15.20;99.90
19968;DHT22;10145;49.152;9.282;2022-11-15T14:08:28;15.10;99.90
19968;DHT22;10145;49.152;9.282;2022-11-15T14:11:16;15.00;99.90
19968;DHT22;10145;49.152;9.282;2022-11-15T14:14:02;15.00;99.90
19968;DHT22;10145;49.152;9.282;2022-11-15T14:16:34;14.90;99.90
19968;DHT22;10145;49.152;9.282;2022-11-15T14:19:01;14.80;99.90
19968;DHT22;10145;49.152;9.282;2022-11-15T14:21:27;14.70;99.90
19968;DHT22;10145;49.152;9.282;2022-11-15T14:23:53;14.70;99.90
19968;DHT22;10145;49.152;9.282;2022-11-15T14:26:38;14.60;99.90
19968;DHT22;10145;49.152;9.282;2022-11-15T14:29:27;14.40;99.90
19968;DHT22;10145;49.152;9.282;2022-11-15T14:34:47;14.20;99.90
19968;DHT22;10145;49.152;9.282;2022-11-15T14:37:20;14.20;99.90
19968;DHT22;10145;49.152;9.282;2022-11-15T14:39:46;14.10;99.90
19968;DHT22;10145;49.152;9.282;2022-11-15T14:42:12;14.10;99.90
19968;DHT22;10145;49.152;9.282;2022-11-15T14:44:37;14.20;99.90
19968;DHT22;10145;49.152;9.282;2022-11-15T14:47:03;14.10;99.90
19968;DHT22;10145;49.152;9.282;2022-11-15T14:49:28;14.10;99.90
19968;DHT22;10145;49.152;9.282;2022-11-15T14:51:54;14.00;99.90
19968;DHT22;10145;49.152;9.282;2022-11-15T14:54:19;13.90;99.90
19968;DHT22;10145;49.152;9.282;2022-11-15T14:56:45;13.90;99.90
19968;DHT22;10145;49.152;9.282;2022-11-15T14:59:10;13.80;99.90
19968;DHT22;10145;49.152;9.282;2022-11-15T15:01:36;13.70;99.90
19968;DHT22;10145;49.152;9.282;2022-11-15T15:04:01;13.60;99.90
19968;DHT22;10145;49.152;9.282;2022-11-15T15:06:27;13.60;99.90
19968;DHT22;10145;49.152;9.282;2022-11-15T15:08:52;13.50;99.90
19968;DHT22;10145;49.152;9.282;2022-11-15T15:11:23;13.40;99.90
19968;DHT22;10145;49.152;9.282;2022-11-15T15:13:49;13.40;99.90
19968;DHT22;10145;49.152;9.282;2022-11-15T15:16:15;13.30;99.90
19968;DHT22;10145;49.152;9.282;2022-11-15T15:18:40;13.30;99.90
19968;DHT22;10145;49.152;9.282;2022-11-15T15:21:26;13.10;99.90
19968;DHT22;10145;49.152;9.282;2022-11-15T15:23:53;13.00;99.90
19968;DHT22;10145;49.152;9.282;2022-11-15T15:26:25;13.00;99.90
19968;DHT22;10145;49.152;9.282;2022-11-15T15:28:51;12.90;99.90
19968;DHT22;10145;49.152;9.282;2022-11-15T15:31:17;12.90;99.90
19968;DHT22;10145;49.152;9.282;2022-11-15T15:33:43;12.90;99.90
19968;DHT22;10145;49.152;9.282;2022-11-15T15:36:14;12.80;99.90
19968;DHT22;10145;49.152;9.282;2022-11-15T15:38:42;12.80;99.90
19968;DHT22;10145;49.152;9.282;2022-11-15T15:41:10;12.70;99.90
19968;DHT22;10145;49.152;9.282;2022-11-15T15:43:35;12.60;99.90
19968;DHT22;10145;49.152;9.282;2022-11-15T15:46:01;12.50;99.90
19968;DHT22;10145;49.152;9.282;2022-11-15T15:48:26;12.40;99.90
19968;DHT22;10145;49.152;9.282;2022-11-15T15:50:52;12.50;99.90
19968;DHT22;10145;49.152;9.282;2022-11-15T15:53:17;12.40;99.90
19968;DHT22;10145;49.152;9.282;2022-11-15T15:55:43;12.30;99.90
19968;DHT22;10145;49.152;9.282;2022-11-15T15:58:09;12.30;99.90
19968;DHT22;10145;49.152;9.282;2022-11-15T16:00:34;12.40;99.90
19968;DHT22;10145;49.152;9.282;2022-11-15T16:03:00;12.50;99.90
19968;DHT22;10145;49.152;9.282;2022-11-15T16:05:25;12.50;99.90
19968;DHT22;10145;49.152;9.282;2022-11-15T16:07:51;12.50;99.90
19968;DHT22;10145;49.152;9.282;2022-11-15T16:10:25;12.50;99.90
19968;DHT22;10145;49.152;9.282;2022-11-15T16:12:52;12.50;99.90
19968;DHT22;10145;49.152;9.282;2022-11-15T16:15:18;12.50;99.90
19968;DHT22;10145;49.152;9.282;2022-11-15T16:17:49;12.40;99.90
19968;DHT22;10145;49.152;9.282;2022-11-15T16:20:41;12.30;99.90
19968;DHT22;10145;49.152;9.282;2022-11-15T16:23:14;12.30;99.90
19968;DHT22;10145;49.152;9.282;2022-11-15T16:25:49;12.20;99.90
19968;DHT22;10145;49.152;9.282;2022-11-15T16:28:26;12.30;99.90
19968;DHT22;10145;49.152;9.282;2022-11-15T16:31:09;12.20;99.90
19968;DHT22;10145;49.152;9.282;2022-11-15T16:33:35;12.20;99.90
19968;DHT22;10145;49.152;9.282;2022-11-15T16:36:02;12.20;99.90
19968;DHT22;10145;49.152;9.282;2022-11-15T16:38:28;12.10;99.90
19968;DHT22;10145;49.152;9.282;2022-11-15T16:40:53;12.10;99.90
19968;DHT22;10145;49.152;9.282;2022-11-15T16:43:19;12.10;99.90
19968;DHT22;10145;49.152;9.282;2022-11-15T16:45:45;12.10;99.90
19968;DHT22;10145;49.152;9.282;2022-11-15T16:48:21;12.10;99.90
19968;DHT22;10145;49.152;9.282;2022-11-15T16:50:47;12.10;99.90
19968;DHT22;10145;49.152;9.282;2022-11-15T16:53:12;12.10;99.90
19968;DHT22;10145;49.152;9.282;2022-11-15T16:55:38;12.10;99.90
19968;DHT22;10145;49.152;9.282;2022-11-15T16:58:04;12.10;99.90
19968;DHT22;10145;49.152;9.282;2022-11-15T17:00:29;12.00;99.90
19968;DHT22;10145;49.152;9.282;2022-11-15T17:02:55;12.00;99.90
19968;DHT22;10145;49.152;9.282;2022-11-15T17:05:22;12.00;99.90
19968;DHT22;10145;49.152;9.282;2022-11-15T17:07:49;11.90;99.90
19968;DHT22;10145;49.152;9.282;2022-11-15T17:10:16;11.90;99.90
19968;DHT22;10145;49.152;9.282;2022-11-15T17:12:42;11.80;99.90
19968;DHT22;10145;49.152;9.282;2022-11-15T17:15:11;11.70;99.90
19968;DHT22;10145;49.152;9.282;2022-11-15T17:17:37;11.70;99.90
19968;DHT22;10145;49.152;9.282;2022-11-15T17:20:02;11.70;99.90
19968;DHT22;10145;49.152;9.282;2022-11-15T17:22:29;11.70;99.90
19968;DHT22;10145;49.152;9.282;2022-11-15T17:24:55;11.70;99.90
19968;DHT22;10145;49.152;9.282;2022-11-15T17:27:21;11.70;99.90
19968;DHT22;10145;49.152;9.282;2022-11-15T17:29:48;11.70;99.90
19968;DHT22;10145;49.152;9.282;2022-11-15T17:32:13;11.70;99.90
19968;DHT22;10145;49.152;9.282;2022-11-15T17:34:39;11.60;99.90
19968;DHT22;10145;49.152;9.282;2022-11-15T17:37:04;11.60;99.90
19968;DHT22;10145;49.152;9.282;2022-11-15T17:39:30;11.60;99.90
19968;DHT22;10145;49.152;9.282;2022-11-15T17:41:55;11.50;99.90
19968;DHT22;10145;49.152;9.282;2022-11-15T17:44:21;11.50;99.90
19968;DHT22;10145;49.152;9.282;2022-11-15T17:46:46;11.40;99.90
19968;DHT22;10145;49.152;9.282;2022-11-15T17:49:12;11.30;99.90
19968;DHT22;10145;49.152;9.282;2022-11-15T17:51:37;11.30;99.90
19968;DHT22;10145;49.152;9.282;2022-11-15T17:54:03;11.30;99.90
19968;DHT22;10145;49.152;9.282;2022-11-15T17:56:29;11.20;99.90
19968;DHT22;10145;49.152;9.282;2022-11-15T17:58:57;11.20;99.90
19968;DHT22;10145;49.152;9.282;2022-11-15T18:01:31;11.20;99.90
19968;DHT22;10145;49.152;9.282;2022-11-15T18:03:58;11.20;99.90
19968;DHT22;10145;49.152;9.282;2022-11-15T18:06:27;11.20;99.90
19968;DHT22;10145;49.152;9.282;2022-11-15T18:08:54;11.30;99.90
19968;DHT22;10145;49.152;9.282;2022-11-15T18:11:22;11.20;99.90
19968;DHT22;10145;49.152;9.282;2022-11-15T18:13:51;11.20;99.90
19968;DHT22;10145;49.152;9.282;2022-11-15T18:16:19;11.20;99.90
19968;DHT22;10145;49.152;9.282;2022-11-15T18:18:45;11.10;99.90
19968;DHT22;10145;49.152;9.282;2022-11-15T18:21:13;11.10;99.90
19968;DHT22;10145;49.152;9.282;2022-11-15T18:23:40;11.10;99.90
19968;DHT22;10145;49.152;9.282;2022-11-15T18:26:07;11.10;99.90
19968;DHT22;10145;49.152;9.282;2022-11-15T18:28:36;11.00;99.90
19968;DHT22;10145;49.152;9.282;2022-11-15T18:31:03;11.00;99.90
19968;DHT22;10145;49.152;9.282;2022-11-15T18:33:32;11.00;99.90
19968;DHT22;10145;49.152;9.282;2022-11-15T18:36:03;11.00;99.90
19968;DHT22;10145;49.152;9.282;2022-11-15T18:38:29;10.90;99.90
19968;DHT22;10145;49.152;9.282;2022-11-15T18:43:30;10.90;99.90
19968;DHT22;10145;49.152;9.282;2022-11-15T18:46:04;10.90;99.90
19968;DHT22;10145;49.152;9.282;2022-11-15T18:48:32;10.80;99.90
19968;DHT22;10145;49.152;9.282;2022-11-15T18:51:04;10.90;99.90
19968;DHT22;10145;49.152;9.282;2022-11-15T18:53:30;10.90;99.90
19968;DHT22;10145;49.152;9.282;2022-11-15T18:56:01;10.90;99.90
19968;DHT22;10145;49.152;9.282;2022-11-15T18:58:31;10.90;99.90
19968;DHT22;10145;49.152;9.282;2022-11-15T19:03:34;10.90;99.90
19968;DHT22;10145;49.152;9.282;2022-11-15T19:06:02;10.90;99.90
19968;DHT22;10145;49.152;9.282;2022-11-15T19:08:28;10.90;99.90
19968;DHT22;10145;49.152;9.282;2022-11-15T19:10:54;10.80;99.90
19968;DHT22;10145;49.152;9.282;2022-11-15T19:13:19;10.80;99.90
19968;DHT22;10145;49.152;9.282;2022-11-15T19:15:45;10.80;99.90
19968;DHT22;10145;49.152;9.282;2022-11-15T19:18:11;10.80;99.90
19968;DHT22;10145;49.152;9.282;2022-11-15T19:20:37;10.80;99.90
19968;DHT22;10145;49.152;9.282;2022-11-15T19:23:02;10.70;99.90
19968;DHT22;10145;49.152;9.282;2022-11-15T19:25:28;10.80;99.90
19968;DHT22;10145;49.152;9.282;2022-11-15T19:27:54;10.80;99.90
19968;DHT22;10145;49.152;9.282;2022-11-15T19:30:19;10.80;99.90
19968;DHT22;10145;49.152;9.282;2022-11-15T19:32:45;10.80;99.90
19968;DHT22;10145;49.152;9.282;2022-11-15T19:35:10;10.80;99.90
19968;DHT22;10145;49.152;9.282;2022-11-15T19:37:36;10.80;99.90
19968;DHT22;10145;49.152;9.282;2022-11-15T19:40:02;10.80;99.90
19968;DHT22;10145;49.152;9.282;2022-11-15T19:42:28;10.80;99.90
19968;DHT22;10145;49.152;9.282;2022-11-15T19:44:54;10.80;99.90
19968;DHT22;10145;49.152;9.282;2022-11-15T19:47:19;10.80;99.90
19968;DHT22;10145;49.152;9.282;2022-11-15T19:49:45;10.80;99.90
19968;DHT22;10145;49.152;9.282;2022-11-15T19:52:11;10.80;99.90
19968;DHT22;10145;49.152;9.282;2022-11-15T19:54:36;10.90;99.90
19968;DHT22;10145;49.152;9.282;2022-11-15T19:57:02;10.90;99.90
19968;DHT22;10145;49.152;9.282;2022-11-15T19:59:27;11.00;99.90
19968;DHT22;10145;49.152;9.282;2022-11-15T20:01:53;11.10;99.90
19968;DHT22;10145;49.152;9.282;2022-11-15T20:04:18;11.40;99.90
19968;DHT22;10145;49.152;9.282;2022-11-15T20:06:44;11.50;99.90
19968;DHT22;10145;49.152;9.282;2022-11-15T20:09:14;11.60;99.90
19968;DHT22;10145;49.152;9.282;2022-11-15T20:11:40;11.60;99.90
19968;DHT22;10145;49.152;9.282;2022-11-15T20:14:05;11.60;99.90
19968;DHT22;10145;49.152;9.282;2022-11-15T20:16:33;11.70;99.90
19968;DHT22;10145;49.152;9.282;2022-11-15T20:18:58;11.60;99.90
19968;DHT22;10145;49.152;9.282;2022-11-15T20:21:24;11.50;99.90
19968;DHT22;10145;49.152;9.282;2022-11-15T20:23:50;11.50;99.90
19968;DHT22;10145;49.152;9.282;2022-11-15T20:26:16;11.40;99.90
19968;DHT22;10145;49.152;9.282;2022-11-15T20:28:42;11.30;99.90
19968;DHT22;10145;49.152;9.282;2022-11-15T20:31:09;11.20;99.90
19968;DHT22;10145;49.152;9.282;2022-11-15T20:33:35;11.10;99.90
19968;DHT22;10145;49.152;9.282;2022-11-15T20:36:05;11.10;99.90
19968;DHT22;10145;49.152;9.282;2022-11-15T20:38:31;11.10;99.90
19968;DHT22;10145;49.152;9.282;2022-11-15T20:40:57;11.10;99.90
19968;DHT22;10145;49.152;9.282;2022-11-15T20:43:23;11.00;99.90
19968;DHT22;10145;49.152;9.282;2022-11-15T20:45:48;11.00;99.90
19968;DHT22;10145;49.152;9.282;2022-11-15T20:48:15;10.90;99.90
19968;DHT22;10145;49.152;9.282;2022-11-15T20:50:43;10.90;99.90
19968;DHT22;10145;49.152;9.282;2022-11-15T20:53:09;10.90;99.90
19968;DHT22;10145;49.152;9.282;2022-11-15T20:55:43;10.90;99.90
19968;DHT22;10145;49.152;9.282;2022-11-15T20:58:09;10.90;99.90
19968;DHT22;10145;49.152;9.282;2022-11-15T21:00:36;10.90;99.90
19968;DHT22;10145;49.152;9.282;2022-11-15T21:03:03;10.90;99.90
19968;DHT22;10145;49.152;9.282;2022-11-15T21:05:32;10.90;99.90
19968;DHT22;10145;49.152;9.282;2022-11-15T21:07:58;10.90;99.90
19968;DHT22;10145;49.152;9.282;2022-11-15T21:10:24;10.90;99.90
19968;DHT22;10145;49.152;9.282;2022-11-15T21:13:08;10.80;99.90
19968;DHT22;10145;49.152;9.282;2022-11-15T21:15:34;10.90;99.90
19968;DHT22;10145;49.152;9.282;2022-11-15T21:17:59;10.80;99.90
19968;DHT22;10145;49.152;9.282;2022-11-15T21:20:25;10.80;99.90
19968;DHT22;10145;49.152;9.282;2022-11-15T21:22:51;10.80;99.90
19968;DHT22;10145;49.152;9.282;2022-11-15T21:25:16;10.80;99.90
19968;DHT22;10145;49.152;9.282;2022-11-15T21:27:42;10.80;99.90
19968;DHT22;10145;49.152;9.282;2022-11-15T21:30:08;10.70;99.90
19968;DHT22;10145;49.152;9.282;2022-11-15T21:32:33;10.70;99.90
19968;DHT22;10145;49.152;9.282;2022-11-15T21:34:59;10.70;99.90
19968;DHT22;10145;49.152;9.282;2022-11-15T21:37:25;10.70;99.90
19968;DHT22;10145;49.152;9.282;2022-11-15T21:39:50;10.70;99.90
19968;DHT22;10145;49.152;9.282;2022-11-15T21:42:16;10.70;99.90
19968;DHT22;10145;49.152;9.282;2022-11-15T21:44:41;10.70;99.90
19968;DHT22;10145;49.152;9.282;2022-11-15T21:47:07;10.60;99.90
19968;DHT22;10145;49.152;9.282;2022-11-15T21:49:32;10.60;99.90
19968;DHT22;10145;49.152;9.282;2022-11-15T21:51:58;10.60;99.90
19968;DHT22;10145;49.152;9.282;2022-11-15T21:54:23;10.50;99.90
19968;DHT22;10145;49.152;9.282;2022-11-15T21:56:49;10.50;99.90
19968;DHT22;10145;49.152;9.282;2022-11-15T21:59:14;10.50;99.90
19968;DHT22;10145;49.152;9.282;2022-11-15T22:01:40;10.50;99.90
19968;DHT22;10145;49.152;9.282;2022-11-15T22:04:24;10.40;99.90
19968;DHT22;10145;49.152;9.282;2022-11-15T22:06:50;10.40;99.90
19968;DHT22;10145;49.152;9.282;2022-11-15T22:09:15;10.40;99.90
19968;DHT22;10145;49.152;9.282;2022-11-15T22:11:41;10.40;99.90
19968;DHT22;10145;49.152;9.282;2022-11-15T22:14:07;10.40;99.90
19968;DHT22;10145;49.152;9.282;2022-11-15T22:16:32;10.40;99.90
19968;DHT22;10145;49.152;9.282;2022-11-15T22:18:58;10.50;99.90
19968;DHT22;10145;49.152;9.282;2022-11-15T22:21:24;10.50;99.90
19968;DHT22;10145;49.152;9.282;2022-11-15T22:23:49;10.50;99.90
19968;DHT22;10145;49.152;9.282;2022-11-15T22:26:17;10.50;99.90
19968;DHT22;10145;49.152;9.282;2022-11-15T22:28:43;10.50;99.90
19968;DHT22;10145;49.152;9.282;2022-11-15T22:31:09;10.50;99.90